sensor_id;sensor_type;location;lat;lon;timestamp;P1;durP1;ratioP1;P2;durP2;ratioP2
62693;SDS011;48759;52.544;13.418;2023-02-28T00:00:34;12.40;;;7.37;;
62693;SDS011;48759;52.544;13.418;2023-02-28T00:03:02;14.17;;;7.63;;
62693;SDS011;48759;52.544;13.418;2023-02-28T00:05:30;11.03;;;5.67;;
62693;SDS011;48759;52.544;13.418;2023-02-28T00:07:57;8.80;;;5.47;;
62693;SDS011;48759;52.544;13.418;2023-02-28T00:10:25;4.90;;;3.87;;
62693;SDS011;48759;52.544;13.418;2023-02-28T00:12:53;4.40;;;3.70;;
62693;SDS011;48759;52.544;13.418;2023-02-28T00:15:22;9.07;;;3.80;;
62693;SDS011;48759;52.544;13.418;2023-02-28T00:17:49;10.67;;;3.50;;
62693;SDS011;48759;52.544;13.418;2023-02-28T00:20:17;7.00;;;3.63;;
62693;SDS011;48759;52.544;13.418;2023-02-28T00:22:46;3.73;;;3.13;;
62693;SDS011;48759;52.544;13.418;2023-02-28T00:25:15;6.60;;;3.70;;
62693;SDS011;48759;52.544;13.418;2023-02-28T00:27:43;3.73;;;3.13;;
62693;SDS011;48759;52.544;13.418;2023-02-28T00:30:11;3.90;;;2.50;;
62693;SDS011;48759;52.544;13.418;2023-02-28T00:32:39;4.33;;;3.27;;
62693;SDS011;48759;52.544;13.418;2023-02-28T00:35:07;5.70;;;3.10;;
62693;SDS011;48759;52.544;13.418;2023-02-28T00:37:34;4.27;;;3.00;;
62693;SDS011;48759;52.544;13.418;2023-02-28T00:40:02;5.10;;;3.30;;
62693;SDS011;48759;52.544;13.418;2023-02-28T00:42:31;5.17;;;3.30;;
62693;SDS011;48759;52.544;13.418;2023-02-28T00:44:58;4.63;;;3.10;;
62693;SDS011;48759;52.544;13.418;2023-02-28T00:47:25;4.43;;;2.90;;
62693;SDS011;48759;52.544;13.418;2023-02-28T00:49:52;12.43;;;3.70;;
62693;SDS011;48759;52.544;13.418;2023-02-28T00:52:18;4.10;;;3.17;;
62693;SDS011;48759;52.544;13.418;2023-02-28T00:54:45;5.10;;;3.27;;
62693;SDS011;48759;52.544;13.418;2023-02-28T00:57:13;4.50;;;3.40;;
62693;SDS011;48759;52.544;13.418;2023-02-28T00:59:39;2.83;;;2.63;;
62693;SDS011;48759;52.544;13.418;2023-02-28T01:02:06;4.10;;;2.70;;
62693;SDS011;48759;52.544;13.418;2023-02-28T01:04:33;5.00;;;3.10;;
62693;SDS011;48759;52.544;13.418;2023-02-28T01:07:01;3.80;;;2.50;;
62693;SDS011;48759;52.544;13.418;2023-02-28T01:09:28;5.23;;;2.80;;
62693;SDS011;48759;52.544;13.418;2023-02-28T01:11:54;3.90;;;3.30;;
62693;SDS011;48759;52.544;13.418;2023-02-28T01:14:23;4.17;;;3.13;;
62693;SDS011;48759;52.544;13.418;2023-02-28T01:16:49;4.40;;;3.23;;
62693;SDS011;48759;52.544;13.418;2023-02-28T01:19:16;4.60;;;2.67;;
62693;SDS011;48759;52.544;13.418;2023-02-28T01:21:43;5.73;;;3.30;;
62693;SDS011;48759;52.544;13.418;2023-02-28T01:24:09;5.70;;;3.13;;
62693;SDS011;48759;52.544;13.418;2023-02-28T01:26:36;4.17;;;2.77;;
62693;SDS011;48759;52.544;13.418;2023-02-28T01:29:03;5.30;;;3.27;;
62693;SDS011;48759;52.544;13.418;2023-02-28T01:31:31;5.53;;;2.90;;
62693;SDS011;48759;52.544;13.418;2023-02-28T01:33:57;4.60;;;3.30;;
62693;SDS011;48759;52.544;13.418;2023-02-28T01:36:24;4.90;;;2.90;;
62693;SDS011;48759;52.544;13.418;2023-02-28T01:38:51;3.60;;;3.30;;
62693;SDS011;48759;52.544;13.418;2023-02-28T01:41:20;4.90;;;4.30;;
62693;SDS011;48759;52.544;13.418;2023-02-28T01:43:58;5.50;;;3.73;;
62693;SDS011;48759;52.544;13.418;2023-02-28T01:46:28;5.03;;;3.53;;
62693;SDS011;48759;52.544;13.418;2023-02-28T01:48:59;6.90;;;3.50;;
62693;SDS011;48759;52.544;13.418;2023-02-28T01:51:30;5.27;;;3.87;;
62693;SDS011;48759;52.544;13.418;2023-02-28T01:54:01;6.33;;;3.57;;
62693;SDS011;48759;52.544;13.418;2023-02-28T01:56:32;7.17;;;3.27;;
62693;SDS011;48759;52.544;13.418;2023-02-28T01:59:02;4.77;;;3.20;;
62693;SDS011;48759;52.544;13.418;2023-02-28T02:01:31;4.90;;;3.70;;
62693;SDS011;48759;52.544;13.418;2023-02-28T02:03:59;4.13;;;3.80;;
62693;SDS011;48759;52.544;13.418;2023-02-28T02:06:28;7.20;;;3.93;;
62693;SDS011;48759;52.544;13.418;2023-02-28T02:09:00;6.70;;;3.80;;
62693;SDS011;48759;52.544;13.418;2023-02-28T02:11:27;5.50;;;3.53;;
62693;SDS011;48759;52.544;13.418;2023-02-28T02:14:05;9.00;;;4.27;;
62693;SDS011;48759;52.544;13.418;2023-02-28T02:17:00;7.27;;;3.57;;
62693;SDS011;48759;52.544;13.418;2023-02-28T02:25:41;5.90;;;4.10;;
62693;SDS011;48759;52.544;13.418;2023-02-28T02:28:22;7.80;;;4.50;;
62693;SDS011;48759;52.544;13.418;2023-02-28T02:31:06;6.37;;;3.77;;
62693;SDS011;48759;52.544;13.418;2023-02-28T02:37:13;9.30;;;4.03;;
62693;SDS011;48759;52.544;13.418;2023-02-28T02:39:49;5.83;;;3.57;;
62693;SDS011;48759;52.544;13.418;2023-02-28T02:42:20;4.10;;;3.50;;
62693;SDS011;48759;52.544;13.418;2023-02-28T02:44:55;6.33;;;3.67;;
62693;SDS011;48759;52.544;13.418;2023-02-28T02:47:27;8.93;;;4.30;;
62693;SDS011;48759;52.544;13.418;2023-02-28T02:49:57;9.27;;;4.30;;
62693;SDS011;48759;52.544;13.418;2023-02-28T02:52:30;5.97;;;3.60;;
62693;SDS011;48759;52.544;13.418;2023-02-28T02:55:00;6.60;;;4.40;;
62693;SDS011;48759;52.544;13.418;2023-02-28T02:57:30;8.10;;;3.77;;
62693;SDS011;48759;52.544;13.418;2023-02-28T03:00:02;5.27;;;4.20;;
62693;SDS011;48759;52.544;13.418;2023-02-28T03:02:33;5.70;;;3.63;;
62693;SDS011;48759;52.544;13.418;2023-02-28T03:05:02;5.63;;;4.30;;
62693;SDS011;48759;52.544;13.418;2023-02-28T03:07:34;9.43;;;5.10;;
62693;SDS011;48759;52.544;13.418;2023-02-28T03:10:00;8.43;;;4.80;;
62693;SDS011;48759;52.544;13.418;2023-02-28T03:12:28;6.83;;;4.47;;
62693;SDS011;48759;52.544;13.418;2023-02-28T03:15:07;5.27;;;4.03;;
62693;SDS011;48759;52.544;13.418;2023-02-28T03:17:53;8.40;;;4.40;;
62693;SDS011;48759;52.544;13.418;2023-02-28T03:20:33;7.67;;;4.40;;
62693;SDS011;48759;52.544;13.418;2023-02-28T03:23:10;7.73;;;4.20;;
62693;SDS011;48759;52.544;13.418;2023-02-28T03:25:45;7.47;;;4.50;;
62693;SDS011;48759;52.544;13.418;2023-02-28T03:28:19;5.47;;;4.10;;
62693;SDS011;48759;52.544;13.418;2023-02-28T03:30:56;5.20;;;3.97;;
62693;SDS011;48759;52.544;13.418;2023-02-28T03:33:26;4.80;;;3.47;;
62693;SDS011;48759;52.544;13.418;2023-02-28T03:35:57;5.70;;;4.10;;
62693;SDS011;48759;52.544;13.418;2023-02-28T03:38:27;6.63;;;4.60;;
62693;SDS011;48759;52.544;13.418;2023-02-28T03:40:58;7.20;;;4.30;;
62693;SDS011;48759;52.544;13.418;2023-02-28T03:43:32;8.20;;;4.30;;
62693;SDS011;48759;52.544;13.418;2023-02-28T03:46:07;5.47;;;4.97;;
62693;SDS011;48759;52.544;13.418;2023-02-28T03:48:37;6.40;;;4.00;;
62693;SDS011;48759;52.544;13.418;2023-02-28T03:51:08;4.93;;;4.40;;
62693;SDS011;48759;52.544;13.418;2023-02-28T03:53:39;5.70;;;4.50;;
62693;SDS011;48759;52.544;13.418;2023-02-28T03:56:11;8.13;;;4.70;;
62693;SDS011;48759;52.544;13.418;2023-02-28T03:58:43;7.13;;;5.13;;
62693;SDS011;48759;52.544;13.418;2023-02-28T04:01:15;5.43;;;4.40;;
62693;SDS011;48759;52.544;13.418;2023-02-28T04:03:47;7.47;;;4.50;;
62693;SDS011;48759;52.544;13.418;2023-02-28T04:06:16;8.00;;;4.90;;
62693;SDS011;48759;52.544;13.418;2023-02-28T04:08:46;7.77;;;4.27;;
62693;SDS011;48759;52.544;13.418;2023-02-28T04:11:16;11.57;;;5.17;;
62693;SDS011;48759;52.544;13.418;2023-02-28T04:13:46;6.97;;;4.97;;
62693;SDS011;48759;52.544;13.418;2023-02-28T04:16:13;7.20;;;4.20;;
62693;SDS011;48759;52.544;13.418;2023-02-28T04:18:40;8.50;;;4.40;;
62693;SDS011;48759;52.544;13.418;2023-02-28T04:21:08;8.70;;;4.67;;
62693;SDS011;48759;52.544;13.418;2023-02-28T04:23:35;10.23;;;5.47;;
62693;SDS011;48759;52.544;13.418;2023-02-28T04:26:03;7.60;;;4.90;;
62693;SDS011;48759;52.544;13.418;2023-02-28T04:28:31;8.10;;;5.10;;
62693;SDS011;48759;52.544;13.418;2023-02-28T04:30:58;7.87;;;4.93;;
62693;SDS011;48759;52.544;13.418;2023-02-28T04:33:26;8.80;;;5.23;;
62693;SDS011;48759;52.544;13.418;2023-02-28T04:36:00;6.83;;;4.73;;
62693;SDS011;48759;52.544;13.418;2023-02-28T04:38:28;13.27;;;6.10;;
62693;SDS011;48759;52.544;13.418;2023-02-28T04:40:56;9.60;;;5.27;;
62693;SDS011;48759;52.544;13.418;2023-02-28T04:43:25;7.07;;;5.33;;
62693;SDS011;48759;52.544;13.418;2023-02-28T04:45:52;9.47;;;6.27;;
62693;SDS011;48759;52.544;13.418;2023-02-28T04:48:21;10.93;;;5.63;;
62693;SDS011;48759;52.544;13.418;2023-02-28T04:50:48;11.60;;;6.30;;
62693;SDS011;48759;52.544;13.418;2023-02-28T04:53:15;11.20;;;6.00;;
62693;SDS011;48759;52.544;13.418;2023-02-28T04:55:41;8.60;;;5.07;;
62693;SDS011;48759;52.544;13.418;2023-02-28T04:58:08;10.27;;;5.37;;
62693;SDS011;48759;52.544;13.418;2023-02-28T05:00:36;8.73;;;6.00;;
62693;SDS011;48759;52.544;13.418;2023-02-28T05:03:02;8.20;;;5.17;;
62693;SDS011;48759;52.544;13.418;2023-02-28T05:05:29;12.37;;;5.13;;
62693;SDS011;48759;52.544;13.418;2023-02-28T05:07:56;8.90;;;5.60;;
62693;SDS011;48759;52.544;13.418;2023-02-28T05:10:23;16.23;;;5.50;;
62693;SDS011;48759;52.544;13.418;2023-02-28T05:12:50;8.13;;;5.03;;
62693;SDS011;48759;52.544;13.418;2023-02-28T05:15:16;8.80;;;5.90;;
62693;SDS011;48759;52.544;13.418;2023-02-28T05:17:44;10.40;;;5.90;;
62693;SDS011;48759;52.544;13.418;2023-02-28T05:20:11;9.50;;;5.57;;
62693;SDS011;48759;52.544;13.418;2023-02-28T05:22:39;10.00;;;5.37;;
62693;SDS011;48759;52.544;13.418;2023-02-28T05:25:06;11.67;;;6.50;;
62693;SDS011;48759;52.544;13.418;2023-02-28T05:27:37;9.30;;;5.53;;
62693;SDS011;48759;52.544;13.418;2023-02-28T05:30:04;8.93;;;5.23;;
62693;SDS011;48759;52.544;13.418;2023-02-28T05:32:35;14.40;;;5.80;;
62693;SDS011;48759;52.544;13.418;2023-02-28T05:35:03;10.20;;;5.30;;
62693;SDS011;48759;52.544;13.418;2023-02-28T05:37:31;8.77;;;5.80;;
62693;SDS011;48759;52.544;13.418;2023-02-28T05:39:57;5.97;;;4.90;;
62693;SDS011;48759;52.544;13.418;2023-02-28T05:42:24;7.80;;;5.30;;
62693;SDS011;48759;52.544;13.418;2023-02-28T05:44:51;11.00;;;5.90;;
62693;SDS011;48759;52.544;13.418;2023-02-28T05:47:18;8.53;;;5.23;;
62693;SDS011;48759;52.544;13.418;2023-02-28T05:49:44;11.40;;;5.37;;
62693;SDS011;48759;52.544;13.418;2023-02-28T05:52:12;9.47;;;5.03;;
62693;SDS011;48759;52.544;13.418;2023-02-28T05:54:39;10.00;;;6.43;;
62693;SDS011;48759;52.544;13.418;2023-02-28T05:57:06;8.50;;;5.97;;
62693;SDS011;48759;52.544;13.418;2023-02-28T05:59:32;8.83;;;5.50;;
62693;SDS011;48759;52.544;13.418;2023-02-28T06:01:59;10.10;;;5.63;;
62693;SDS011;48759;52.544;13.418;2023-02-28T06:04:26;9.47;;;4.90;;
62693;SDS011;48759;52.544;13.418;2023-02-28T06:06:52;7.63;;;5.40;;
62693;SDS011;48759;52.544;13.418;2023-02-28T06:09:20;9.97;;;5.73;;
62693;SDS011;48759;52.544;13.418;2023-02-28T06:11:48;9.00;;;6.10;;
62693;SDS011;48759;52.544;13.418;2023-02-28T06:14:15;11.63;;;5.80;;
62693;SDS011;48759;52.544;13.418;2023-02-28T06:16:43;16.33;;;6.17;;
62693;SDS011;48759;52.544;13.418;2023-02-28T06:19:10;9.00;;;5.97;;
62693;SDS011;48759;52.544;13.418;2023-02-28T06:21:37;11.17;;;5.77;;
62693;SDS011;48759;52.544;13.418;2023-02-28T06:24:04;12.17;;;6.63;;
62693;SDS011;48759;52.544;13.418;2023-02-28T06:26:33;11.47;;;6.80;;
62693;SDS011;48759;52.544;13.418;2023-02-28T06:28:59;11.23;;;6.10;;
62693;SDS011;48759;52.544;13.418;2023-02-28T06:31:27;10.53;;;5.60;;
62693;SDS011;48759;52.544;13.418;2023-02-28T06:33:54;19.47;;;7.60;;
62693;SDS011;48759;52.544;13.418;2023-02-28T06:36:21;11.07;;;6.70;;
62693;SDS011;48759;52.544;13.418;2023-02-28T06:38:48;13.63;;;6.73;;
62693;SDS011;48759;52.544;13.418;2023-02-28T06:41:19;14.20;;;7.10;;
62693;SDS011;48759;52.544;13.418;2023-02-28T06:43:48;11.87;;;7.37;;
62693;SDS011;48759;52.544;13.418;2023-02-28T06:46:14;12.60;;;7.73;;
62693;SDS011;48759;52.544;13.418;2023-02-28T06:48:42;14.40;;;7.37;;
62693;SDS011;48759;52.544;13.418;2023-02-28T06:51:10;15.20;;;7.97;;
62693;SDS011;48759;52.544;13.418;2023-02-28T06:53:39;12.80;;;7.50;;
62693;SDS011;48759;52.544;13.418;2023-02-28T06:56:06;14.20;;;7.63;;
62693;SDS011;48759;52.544;13.418;2023-02-28T06:58:34;11.67;;;7.17;;
62693;SDS011;48759;52.544;13.418;2023-02-28T07:01:04;12.83;;;7.80;;
62693;SDS011;48759;52.544;13.418;2023-02-28T07:03:31;15.43;;;8.10;;
62693;SDS011;48759;52.544;13.418;2023-02-28T07:05:58;13.33;;;7.13;;
62693;SDS011;48759;52.544;13.418;2023-02-28T07:08:25;11.93;;;7.30;;
62693;SDS011;48759;52.544;13.418;2023-02-28T07:10:52;14.93;;;7.10;;
62693;SDS011;48759;52.544;13.418;2023-02-28T07:13:19;10.50;;;6.23;;
62693;SDS011;48759;52.544;13.418;2023-02-28T07:15:52;16.20;;;6.67;;
62693;SDS011;48759;52.544;13.418;2023-02-28T07:18:21;10.60;;;6.50;;
62693;SDS011;48759;52.544;13.418;2023-02-28T07:20:48;14.77;;;6.57;;
62693;SDS011;48759;52.544;13.418;2023-02-28T07:23:14;14.10;;;7.67;;
62693;SDS011;48759;52.544;13.418;2023-02-28T07:25:41;15.00;;;7.17;;
62693;SDS011;48759;52.544;13.418;2023-02-28T07:28:08;15.27;;;6.53;;
62693;SDS011;48759;52.544;13.418;2023-02-28T07:30:35;13.40;;;7.37;;
62693;SDS011;48759;52.544;13.418;2023-02-28T07:33:02;15.40;;;6.77;;
62693;SDS011;48759;52.544;13.418;2023-02-28T07:35:30;13.00;;;6.80;;
62693;SDS011;48759;52.544;13.418;2023-02-28T07:37:57;13.40;;;7.90;;
62693;SDS011;48759;52.544;13.418;2023-02-28T07:40:24;11.87;;;6.53;;
62693;SDS011;48759;52.544;13.418;2023-02-28T07:42:51;11.00;;;6.80;;
62693;SDS011;48759;52.544;13.418;2023-02-28T07:45:18;13.53;;;6.90;;
62693;SDS011;48759;52.544;13.418;2023-02-28T07:47:45;9.27;;;6.27;;
62693;SDS011;48759;52.544;13.418;2023-02-28T07:50:12;12.63;;;7.03;;
62693;SDS011;48759;52.544;13.418;2023-02-28T07:52:42;8.67;;;6.13;;
62693;SDS011;48759;52.544;13.418;2023-02-28T07:55:09;11.93;;;7.80;;
62693;SDS011;48759;52.544;13.418;2023-02-28T07:57:36;14.27;;;7.17;;
62693;SDS011;48759;52.544;13.418;2023-02-28T08:00:04;8.67;;;6.13;;
62693;SDS011;48759;52.544;13.418;2023-02-28T08:02:32;11.60;;;7.43;;
62693;SDS011;48759;52.544;13.418;2023-02-28T08:04:59;13.57;;;9.10;;
62693;SDS011;48759;52.544;13.418;2023-02-28T08:07:26;15.47;;;8.20;;
62693;SDS011;48759;52.544;13.418;2023-02-28T08:09:54;12.97;;;7.80;;
62693;SDS011;48759;52.544;13.418;2023-02-28T08:12:21;9.43;;;5.73;;
62693;SDS011;48759;52.544;13.418;2023-02-28T08:14:47;10.23;;;6.47;;
62693;SDS011;48759;52.544;13.418;2023-02-28T08:17:14;8.50;;;5.53;;
62693;SDS011;48759;52.544;13.418;2023-02-28T08:19:41;10.80;;;6.20;;
62693;SDS011;48759;52.544;13.418;2023-02-28T08:22:07;7.73;;;4.60;;
62693;SDS011;48759;52.544;13.418;2023-02-28T08:24:34;9.27;;;5.93;;
62693;SDS011;48759;52.544;13.418;2023-02-28T08:27:02;9.50;;;5.30;;
62693;SDS011;48759;52.544;13.418;2023-02-28T08:29:29;7.13;;;3.80;;
62693;SDS011;48759;52.544;13.418;2023-02-28T08:31:55;5.70;;;4.13;;
62693;SDS011;48759;52.544;13.418;2023-02-28T08:34:23;8.17;;;3.90;;
62693;SDS011;48759;52.544;13.418;2023-02-28T08:36:50;7.70;;;3.77;;
62693;SDS011;48759;52.544;13.418;2023-02-28T08:39:18;3.07;;;2.80;;
62693;SDS011;48759;52.544;13.418;2023-02-28T08:41:47;4.83;;;3.13;;
62693;SDS011;48759;52.544;13.418;2023-02-28T08:44:15;5.77;;;3.23;;
62693;SDS011;48759;52.544;13.418;2023-02-28T08:46:44;5.80;;;3.20;;
62693;SDS011;48759;52.544;13.418;2023-02-28T08:49:11;5.73;;;2.90;;
62693;SDS011;48759;52.544;13.418;2023-02-28T08:51:38;3.67;;;2.60;;
62693;SDS011;48759;52.544;13.418;2023-02-28T08:54:05;2.77;;;2.10;;
62693;SDS011;48759;52.544;13.418;2023-02-28T08:56:32;6.17;;;3.20;;
62693;SDS011;48759;52.544;13.418;2023-02-28T08:58:59;7.23;;;2.47;;
62693;SDS011;48759;52.544;13.418;2023-02-28T09:01:27;2.13;;;1.93;;
62693;SDS011;48759;52.544;13.418;2023-02-28T09:03:55;5.00;;;1.97;;
62693;SDS011;48759;52.544;13.418;2023-02-28T09:06:23;2.70;;;2.50;;
62693;SDS011;48759;52.544;13.418;2023-02-28T09:08:50;3.10;;;2.50;;
62693;SDS011;48759;52.544;13.418;2023-02-28T09:11:18;4.03;;;2.73;;
62693;SDS011;48759;52.544;13.418;2023-02-28T09:13:45;2.97;;;2.00;;
62693;SDS011;48759;52.544;13.418;2023-02-28T09:16:13;4.33;;;2.33;;
62693;SDS011;48759;52.544;13.418;2023-02-28T09:18:43;7.90;;;2.50;;
62693;SDS011;48759;52.544;13.418;2023-02-28T09:21:11;2.87;;;2.30;;
62693;SDS011;48759;52.544;13.418;2023-02-28T09:23:39;6.47;;;5.10;;
62693;SDS011;48759;52.544;13.418;2023-02-28T09:26:07;3.73;;;2.57;;
62693;SDS011;48759;52.544;13.418;2023-02-28T09:28:34;2.93;;;2.73;;
62693;SDS011;48759;52.544;13.418;2023-02-28T09:31:00;4.20;;;2.67;;
62693;SDS011;48759;52.544;13.418;2023-02-28T09:33:29;2.80;;;2.20;;
62693;SDS011;48759;52.544;13.418;2023-02-28T09:36:01;2.80;;;1.70;;
62693;SDS011;48759;52.544;13.418;2023-02-28T09:38:29;1.97;;;1.80;;
62693;SDS011;48759;52.544;13.418;2023-02-28T09:40:56;4.30;;;2.20;;
62693;SDS011;48759;52.544;13.418;2023-02-28T09:43:26;2.20;;;2.07;;
62693;SDS011;48759;52.544;13.418;2023-02-28T09:45:56;3.40;;;2.07;;
62693;SDS011;48759;52.544;13.418;2023-02-28T09:48:31;2.93;;;1.97;;
62693;SDS011;48759;52.544;13.418;2023-02-28T09:51:04;2.60;;;1.67;;
62693;SDS011;48759;52.544;13.418;2023-02-28T09:53:37;3.57;;;2.03;;
62693;SDS011;48759;52.544;13.418;2023-02-28T09:56:05;2.00;;;1.80;;
62693;SDS011;48759;52.544;13.418;2023-02-28T09:58:37;2.60;;;2.40;;
62693;SDS011;48759;52.544;13.418;2023-02-28T10:01:09;2.33;;;2.03;;
62693;SDS011;48759;52.544;13.418;2023-02-28T10:03:47;5.00;;;1.80;;
62693;SDS011;48759;52.544;13.418;2023-02-28T10:06:25;5.80;;;2.40;;
62693;SDS011;48759;52.544;13.418;2023-02-28T10:08:56;3.90;;;2.10;;
62693;SDS011;48759;52.544;13.418;2023-02-28T10:11:27;3.23;;;2.23;;
62693;SDS011;48759;52.544;13.418;2023-02-28T10:13:55;6.10;;;2.10;;
62693;SDS011;48759;52.544;13.418;2023-02-28T10:16:28;5.93;;;1.70;;
62693;SDS011;48759;52.544;13.418;2023-02-28T10:19:01;3.40;;;1.87;;
62693;SDS011;48759;52.544;13.418;2023-02-28T10:21:34;3.30;;;2.00;;
62693;SDS011;48759;52.544;13.418;2023-02-28T10:24:04;3.20;;;1.93;;
62693;SDS011;48759;52.544;13.418;2023-02-28T10:26:43;3.57;;;1.80;;
62693;SDS011;48759;52.544;13.418;2023-02-28T10:29:11;3.07;;;2.33;;
62693;SDS011;48759;52.544;13.418;2023-02-28T10:31:38;4.13;;;2.40;;
62693;SDS011;48759;52.544;13.418;2023-02-28T10:34:05;4.20;;;2.40;;
62693;SDS011;48759;52.544;13.418;2023-02-28T10:36:36;2.90;;;2.23;;
62693;SDS011;48759;52.544;13.418;2023-02-28T10:39:03;2.03;;;1.83;;
62693;SDS011;48759;52.544;13.418;2023-02-28T10:42:19;4.00;;;2.33;;
62693;SDS011;48759;52.544;13.418;2023-02-28T10:44:58;2.93;;;1.97;;
62693;SDS011;48759;52.544;13.418;2023-02-28T10:47:31;5.30;;;2.17;;
62693;SDS011;48759;52.544;13.418;2023-02-28T10:50:00;2.03;;;1.83;;
62693;SDS011;48759;52.544;13.418;2023-02-28T10:52:36;3.57;;;2.00;;
62693;SDS011;48759;52.544;13.418;2023-02-28T10:55:15;2.53;;;2.07;;
62693;SDS011;48759;52.544;13.418;2023-02-28T10:57:46;3.80;;;2.00;;
62693;SDS011;48759;52.544;13.418;2023-02-28T11:00:14;2.17;;;2.03;;
62693;SDS011;48759;52.544;13.418;2023-02-28T11:02:43;3.07;;;2.17;;
62693;SDS011;48759;52.544;13.418;2023-02-28T11:05:27;2.90;;;2.43;;
62693;SDS011;48759;52.544;13.418;2023-02-28T11:07:58;3.20;;;2.20;;
62693;SDS011;48759;52.544;13.418;2023-02-28T11:10:31;8.23;;;3.03;;
62693;SDS011;48759;52.544;13.418;2023-02-28T11:12:59;3.20;;;2.47;;
62693;SDS011;48759;52.544;13.418;2023-02-28T11:15:27;5.30;;;2.70;;
62693;SDS011;48759;52.544;13.418;2023-02-28T11:17:57;7.60;;;2.37;;
62693;SDS011;48759;52.544;13.418;2023-02-28T11:20:26;5.40;;;2.47;;
62693;SDS011;48759;52.544;13.418;2023-02-28T11:22:57;5.10;;;1.70;;
62693;SDS011;48759;52.544;13.418;2023-02-28T11:25:26;3.10;;;2.10;;
62693;SDS011;48759;52.544;13.418;2023-02-28T11:27:57;4.10;;;2.77;;
62693;SDS011;48759;52.544;13.418;2023-02-28T11:30:30;4.77;;;3.10;;
62693;SDS011;48759;52.544;13.418;2023-02-28T11:32:59;9.13;;;4.47;;
62693;SDS011;48759;52.544;13.418;2023-02-28T11:35:28;6.07;;;2.90;;
62693;SDS011;48759;52.544;13.418;2023-02-28T11:38:01;4.40;;;2.57;;
62693;SDS011;48759;52.544;13.418;2023-02-28T11:40:30;15.47;;;5.00;;
62693;SDS011;48759;52.544;13.418;2023-02-28T11:43:08;15.30;;;5.90;;
62693;SDS011;48759;52.544;13.418;2023-02-28T11:45:49;4.80;;;2.67;;
62693;SDS011;48759;52.544;13.418;2023-02-28T11:48:29;4.20;;;3.03;;
62693;SDS011;48759;52.544;13.418;2023-02-28T11:51:08;5.57;;;3.83;;
62693;SDS011;48759;52.544;13.418;2023-02-28T11:53:55;10.30;;;4.20;;
62693;SDS011;48759;52.544;13.418;2023-02-28T11:56:49;12.83;;;3.87;;
62693;SDS011;48759;52.544;13.418;2023-02-28T11:59:35;6.17;;;2.87;;
62693;SDS011;48759;52.544;13.418;2023-02-28T12:05:15;9.53;;;4.50;;
62693;SDS011;48759;52.544;13.418;2023-02-28T12:07:55;5.33;;;3.70;;
62693;SDS011;48759;52.544;13.418;2023-02-28T12:10:33;12.70;;;5.90;;
62693;SDS011;48759;52.544;13.418;2023-02-28T12:13:08;12.20;;;4.10;;
62693;SDS011;48759;52.544;13.418;2023-02-28T12:15:56;10.87;;;4.60;;
62693;SDS011;48759;52.544;13.418;2023-02-28T12:18:51;2.70;;;2.50;;
62693;SDS011;48759;52.544;13.418;2023-02-28T12:21:40;9.07;;;4.40;;
62693;SDS011;48759;52.544;13.418;2023-02-28T12:24:29;8.17;;;4.53;;
62693;SDS011;48759;52.544;13.418;2023-02-28T12:27:16;6.60;;;4.00;;
62693;SDS011;48759;52.544;13.418;2023-02-28T12:29:47;6.37;;;4.03;;
62693;SDS011;48759;52.544;13.418;2023-02-28T12:32:20;5.40;;;3.67;;
62693;SDS011;48759;52.544;13.418;2023-02-28T12:34:52;8.73;;;4.43;;
62693;SDS011;48759;52.544;13.418;2023-02-28T12:37:25;12.80;;;5.90;;
62693;SDS011;48759;52.544;13.418;2023-02-28T12:40:00;3.07;;;2.87;;
62693;SDS011;48759;52.544;13.418;2023-02-28T12:42:32;4.77;;;3.20;;
62693;SDS011;48759;52.544;13.418;2023-02-28T12:45:04;8.60;;;4.50;;
62693;SDS011;48759;52.544;13.418;2023-02-28T12:47:36;7.97;;;4.60;;
62693;SDS011;48759;52.544;13.418;2023-02-28T12:50:06;5.70;;;3.13;;
62693;SDS011;48759;52.544;13.418;2023-02-28T12:52:39;3.97;;;2.80;;
62693;SDS011;48759;52.544;13.418;2023-02-28T12:55:13;4.90;;;3.07;;
62693;SDS011;48759;52.544;13.418;2023-02-28T12:57:48;4.13;;;3.23;;
62693;SDS011;48759;52.544;13.418;2023-02-28T13:00:19;4.37;;;3.50;;
62693;SDS011;48759;52.544;13.418;2023-02-28T13:03:01;7.67;;;3.40;;
62693;SDS011;48759;52.544;13.418;2023-02-28T13:08:48;5.10;;;3.23;;
62693;SDS011;48759;52.544;13.418;2023-02-28T13:11:27;4.70;;;2.97;;
62693;SDS011;48759;52.544;13.418;2023-02-28T13:14:01;9.90;;;6.40;;
62693;SDS011;48759;52.544;13.418;2023-02-28T13:19:17;18.97;;;10.23;;
62693;SDS011;48759;52.544;13.418;2023-02-28T13:21:46;12.40;;;7.40;;
62693;SDS011;48759;52.544;13.418;2023-02-28T13:24:36;16.07;;;6.30;;
62693;SDS011;48759;52.544;13.418;2023-02-28T13:31:03;5.53;;;4.30;;
62693;SDS011;48759;52.544;13.418;2023-02-28T13:33:19;4.73;;;3.23;;
62693;SDS011;48759;52.544;13.418;2023-02-28T13:35:50;5.27;;;3.10;;
62693;SDS011;48759;52.544;13.418;2023-02-28T13:38:34;4.47;;;3.70;;
62693;SDS011;48759;52.544;13.418;2023-02-28T13:44:11;7.43;;;4.03;;
62693;SDS011;48759;52.544;13.418;2023-02-28T13:49:52;10.13;;;5.40;;
62693;SDS011;48759;52.544;13.418;2023-02-28T13:52:20;7.13;;;3.43;;
62693;SDS011;48759;52.544;13.418;2023-02-28T13:58:01;3.37;;;3.07;;
62693;SDS011;48759;52.544;13.418;2023-02-28T14:00:42;4.53;;;3.90;;
62693;SDS011;48759;52.544;13.418;2023-02-28T14:03:31;8.23;;;3.60;;
62693;SDS011;48759;52.544;13.418;2023-02-28T14:06:09;4.20;;;3.40;;
62693;SDS011;48759;52.544;13.418;2023-02-28T14:08:45;6.93;;;3.27;;
62693;SDS011;48759;52.544;13.418;2023-02-28T14:11:24;10.23;;;6.33;;
62693;SDS011;48759;52.544;13.418;2023-02-28T14:13:53;5.33;;;3.00;;
62693;SDS011;48759;52.544;13.418;2023-02-28T14:16:20;5.30;;;4.80;;
62693;SDS011;48759;52.544;13.418;2023-02-28T14:18:49;7.67;;;6.00;;
62693;SDS011;48759;52.544;13.418;2023-02-28T14:21:23;5.40;;;3.93;;
62693;SDS011;48759;52.544;13.418;2023-02-28T14:26:56;10.20;;;5.67;;
62693;SDS011;48759;52.544;13.418;2023-02-28T14:29:46;10.17;;;7.10;;
62693;SDS011;48759;52.544;13.418;2023-02-28T14:32:32;20.87;;;8.50;;
62693;SDS011;48759;52.544;13.418;2023-02-28T14:35:13;10.50;;;5.40;;
62693;SDS011;48759;52.544;13.418;2023-02-28T14:37:49;6.83;;;4.70;;
62693;SDS011;48759;52.544;13.418;2023-02-28T14:40:17;7.33;;;4.80;;
62693;SDS011;48759;52.544;13.418;2023-02-28T14:42:56;6.93;;;4.53;;
62693;SDS011;48759;52.544;13.418;2023-02-28T14:45:24;13.87;;;7.50;;
62693;SDS011;48759;52.544;13.418;2023-02-28T14:47:55;10.43;;;5.40;;
62693;SDS011;48759;52.544;13.418;2023-02-28T14:50:24;9.07;;;5.20;;
62693;SDS011;48759;52.544;13.418;2023-02-28T14:52:56;8.10;;;5.07;;
62693;SDS011;48759;52.544;13.418;2023-02-28T14:55:24;4.03;;;3.60;;
62693;SDS011;48759;52.544;13.418;2023-02-28T14:57:53;5.33;;;4.47;;
62693;SDS011;48759;52.544;13.418;2023-02-28T15:00:22;9.13;;;3.77;;
62693;SDS011;48759;52.544;13.418;2023-02-28T15:02:51;5.33;;;3.03;;
62693;SDS011;48759;52.544;13.418;2023-02-28T15:05:22;5.97;;;3.30;;
62693;SDS011;48759;52.544;13.418;2023-02-28T15:08:01;3.87;;;2.90;;
62693;SDS011;48759;52.544;13.418;2023-02-28T15:10:30;3.63;;;3.33;;
62693;SDS011;48759;52.544;13.418;2023-02-28T15:12:58;3.50;;;3.00;;
62693;SDS011;48759;52.544;13.418;2023-02-28T15:15:39;4.67;;;3.67;;
62693;SDS011;48759;52.544;13.418;2023-02-28T15:18:13;4.37;;;2.80;;
62693;SDS011;48759;52.544;13.418;2023-02-28T15:20:48;6.27;;;3.60;;
62693;SDS011;48759;52.544;13.418;2023-02-28T15:23:18;5.17;;;3.63;;
62693;SDS011;48759;52.544;13.418;2023-02-28T15:25:49;3.60;;;2.87;;